Time;durP1;ratioP1;P1;durP2;ratioP2;P2;SDS_P1;SDS_P2;PMS_P1;PMS_P2;Temp;Humidity;BMP_temperature;BMP_pressure;BME280_temperature;BME280_humidity;BME280_pressure;Samples;Min_cycle;Max_cycle;Signal;HPM_P1;HPM_P2
2023/01/05 00:00:34;;;;;;;;;;;9.20;99.90;;;;;;5092382;28;19920;-67
2023/01/05 00:03:00;;;;;;;;;;;9.20;99.90;;;;;;5093211;28;19920;-67
2023/01/05 00:05:25;;;;;;;;;;;9.30;99.90;;;;;;5093167;28;19931;-64
2023/01/05 00:07:51;;;;;;;;;;;9.70;99.90;;;;;;5093441;28;19920;-65
2023/01/05 00:23:58;;;;;;;;;;;9.20;99.90;;;;;;5092892;28;19928;-68
2023/01/05 00:26:23;;;;;;;;;;;9.10;99.90;;;;;;5092567;28;19980;-65
2023/01/05 00:28:49;;;;;;;;;;;9.50;99.90;;;;;;5091350;28;19924;-65
2023/01/05 00:31:15;;;;;;;;;;;9.50;99.90;;;;;;5091254;28;19935;-66
2023/01/05 00:33:40;;;;;;;;;;;9.20;99.90;;;;;;5092372;28;20279;-66
2023/01/05 00:36:07;;;;;;;;;;;9.10;99.90;;;;;;5092754;28;19920;-67
2023/01/05 00:38:33;;;;;;;;;;;9.20;99.90;;;;;;5091429;28;19931;-66
2023/01/05 00:40:59;;;;;;;;;;;9.20;99.90;;;;;;5092489;28;19920;-66
2023/01/05 00:43:24;;;;;;;;;;;9.30;99.90;;;;;;5091413;28;20019;-66
2023/01/05 00:45:50;;;;;;;;;;;8.90;99.90;;;;;;5092611;28;19970;-66
2023/01/05 00:48:15;;;;;;;;;;;9.10;99.90;;;;;;5092268;28;20081;-65
2023/01/05 00:50:41;;;;;;;;;;;9.00;99.90;;;;;;5091261;28;19930;-68
2023/01/05 00:53:06;;;;;;;;;;;9.50;99.90;;;;;;5092492;28;20279;-65
2023/01/05 00:55:32;;;;;;;;;;;9.20;99.90;;;;;;5074416;28;19927;-66
2023/01/05 00:57:57;;;;;;;;;;;9.20;99.90;;;;;;5091214;28;20014;-65
2023/01/05 01:00:23;;;;;;;;;;;9.40;99.90;;;;;;5092516;28;19928;-65
2023/01/05 01:02:52;;;;;;;;;;;9.20;99.90;;;;;;5092458;28;19977;-68
2023/01/05 01:05:17;;;;;;;;;;;9.20;99.90;;;;;;5091424;28;19930;-67
2023/01/05 01:07:43;;;;;;;;;;;9.40;99.90;;;;;;5090494;28;20003;-65
2023/01/05 01:10:09;;;;;;;;;;;9.20;99.90;;;;;;5092263;28;19924;-68
2023/01/05 01:12:35;;;;;;;;;;;9.10;99.90;;;;;;5092347;28;20336;-64
2023/01/05 01:15:00;;;;;;;;;;;9.40;99.90;;;;;;5092268;28;19920;-65
2023/01/05 01:17:26;;;;;;;;;;;9.30;99.90;;;;;;5092294;28;19920;-65
2023/01/05 01:19:52;;;;;;;;;;;9.60;99.90;;;;;;5092264;28;19931;-66
2023/01/05 01:22:17;;;;;;;;;;;9.40;99.90;;;;;;5091966;28;19977;-68
2023/01/05 01:24:43;;;;;;;;;;;9.40;99.90;;;;;;5092284;28;20685;-65
2023/01/05 01:27:09;;;;;;;;;;;9.30;99.90;;;;;;5097680;28;20029;-67
2023/01/05 01:29:34;;;;;;;;;;;9.40;99.90;;;;;;5110180;28;20147;-66
2023/01/05 01:32:00;;;;;;;;;;;9.20;99.90;;;;;;5111758;28;19919;-66
2023/01/05 01:34:25;;;;;;;;;;;9.50;99.90;;;;;;5111533;28;19927;-66
2023/01/05 01:36:53;;;;;;;;;;;9.40;99.90;;;;;;5111296;28;19928;-67
2023/01/05 01:39:18;;;;;;;;;;;9.10;99.90;;;;;;5112448;28;20035;-67
2023/01/05 01:41:44;;;;;;;;;;;9.70;99.90;;;;;;5112497;28;20373;-69
2023/01/05 01:44:28;;;;;;;;;;;9.40;99.90;;;;;;5115369;28;19920;-66
2023/01/05 01:46:54;;;;;;;;;;;9.60;99.90;;;;;;5116073;28;20737;-64
2023/01/05 01:49:19;;;;;;;;;;;9.20;99.90;;;;;;5116645;28;19931;-67
2023/01/05 01:51:46;;;;;;;;;;;9.00;99.90;;;;;;5116034;28;19924;-65
2023/01/05 01:54:14;;;;;;;;;;;9.70;99.90;;;;;;5116163;28;19927;-66
2023/01/05 01:56:46;;;;;;;;;;;9.40;99.90;;;;;;5114794;28;19930;-67
2023/01/05 01:59:12;;;;;;;;;;;9.40;99.90;;;;;;5115962;28;20252;-65
2023/01/05 02:01:38;;;;;;;;;;;9.30;99.90;;;;;;5115946;28;20010;-65
2023/01/05 02:04:04;;;;;;;;;;;9.50;99.90;;;;;;5115861;28;20303;-65
2023/01/05 02:06:30;;;;;;;;;;;9.60;99.90;;;;;;5115630;28;19930;-66
2023/01/05 02:08:56;;;;;;;;;;;9.20;99.90;;;;;;5115842;27;19920;-66
2023/01/05 02:11:29;;;;;;;;;;;9.60;99.90;;;;;;5115724;28;19924;-65
2023/01/05 02:14:06;;;;;;;;;;;9.40;99.90;;;;;;5115713;28;20018;-66
2023/01/05 02:16:35;;;;;;;;;;;9.30;99.90;;;;;;5115623;28;19919;-66
2023/01/05 02:19:09;;;;;;;;;;;9.50;99.90;;;;;;5115636;27;19927;-66
2023/01/05 02:21:44;;;;;;;;;;;9.50;99.90;;;;;;5115236;28;19924;-64
2023/01/05 02:24:25;;;;;;;;;;;9.50;99.90;;;;;;5115522;28;20018;-66
2023/01/05 02:27:19;;;;;;;;;;;9.60;99.90;;;;;;5114435;28;20373;-65
2023/01/05 02:30:00;;;;;;;;;;;9.40;99.90;;;;;;5114920;28;19924;-65
2023/01/05 02:32:31;;;;;;;;;;;9.70;99.90;;;;;;5115437;28;19924;-65
2023/01/05 02:35:16;;;;;;;;;;;9.70;99.90;;;;;;5114102;28;20432;-65
2023/01/05 02:37:44;;;;;;;;;;;9.70;99.90;;;;;;5115260;28;19920;-64
2023/01/05 02:40:13;;;;;;;;;;;9.80;99.90;;;;;;5115195;28;19924;-68
2023/01/05 02:42:40;;;;;;;;;;;9.30;99.90;;;;;;5114915;27;20436;-65
2023/01/05 02:45:07;;;;;;;;;;;9.30;99.90;;;;;;5115063;28;20022;-65
2023/01/05 02:47:44;;;;;;;;;;;9.70;99.90;;;;;;5115078;28;19923;-67
2023/01/05 02:50:33;;;;;;;;;;;9.40;99.90;;;;;;5114685;28;19923;-66
2023/01/05 02:53:01;;;;;;;;;;;9.40;99.90;;;;;;5113757;28;19967;-64
2023/01/05 02:55:31;;;;;;;;;;;9.30;99.90;;;;;;5113059;28;19920;-65
2023/01/05 02:58:01;;;;;;;;;;;9.60;99.90;;;;;;5114861;27;19972;-64
2023/01/05 03:00:35;;;;;;;;;;;9.50;99.90;;;;;;5114784;28;19920;-66
2023/01/05 03:03:11;;;;;;;;;;;9.70;99.90;;;;;;5114853;28;20064;-66
2023/01/05 03:05:41;;;;;;;;;;;9.70;99.90;;;;;;5114448;28;19950;-66
2023/01/05 03:08:09;;;;;;;;;;;9.50;99.90;;;;;;5114638;28;19920;-65
2023/01/05 03:13:41;;;;;;;;;;;9.50;99.90;;;;;;5114631;28;20324;-65
2023/01/05 03:16:09;;;;;;;;;;;9.30;99.90;;;;;;5114556;28;20343;-66
2023/01/05 03:19:34;;;;;;;;;;;9.60;99.90;;;;;;5114218;28;20283;-67
2023/01/05 03:21:25;;;;;;;;;;;9.90;99.90;;;;;;5113980;28;20035;-65
2023/01/05 03:37:58;;;;;;;;;;;9.90;99.90;;;;;;5114166;28;19920;-65
2023/01/05 03:40:26;;;;;;;;;;;9.70;99.90;;;;;;5114062;28;20006;-65
2023/01/05 03:42:52;;;;;;;;;;;9.60;99.90;;;;;;5114218;28;20001;-64
2023/01/05 03:45:18;;;;;;;;;;;9.90;99.90;;;;;;5114135;28;19920;-65
2023/01/05 03:47:44;;;;;;;;;;;9.90;99.90;;;;;;5113672;28;19942;-65
2023/01/05 03:50:10;;;;;;;;;;;9.80;99.90;;;;;;5113779;28;20280;-65
2023/01/05 03:52:35;;;;;;;;;;;9.70;99.90;;;;;;5113720;28;20027;-66
2023/01/05 03:55:01;;;;;;;;;;;9.80;99.90;;;;;;5112766;28;19963;-65
2023/01/05 03:57:26;;;;;;;;;;;9.60;99.90;;;;;;5113753;28;19924;-65
2023/01/05 03:59:52;;;;;;;;;;;9.70;99.90;;;;;;5113681;28;19980;-65
2023/01/05 04:02:17;;;;;;;;;;;9.90;99.90;;;;;;5112347;28;19926;-64
2023/01/05 04:04:43;;;;;;;;;;;9.80;99.90;;;;;;5113574;28;19919;-65
2023/01/05 04:07:09;;;;;;;;;;;9.90;99.90;;;;;;5112634;28;20030;-64
2023/01/05 04:09:34;;;;;;;;;;;9.70;99.90;;;;;;5113079;28;20075;-67
2023/01/05 04:12:00;;;;;;;;;;;9.60;99.90;;;;;;5113416;28;19926;-65
2023/01/05 04:14:25;;;;;;;;;;;9.90;99.90;;;;;;5112092;28;19928;-65
2023/01/05 04:16:51;;;;;;;;;;;9.60;99.90;;;;;;5113081;28;19923;-67
2023/01/05 04:19:16;;;;;;;;;;;10.00;99.90;;;;;;5113358;28;19923;-65
2023/01/05 04:21:42;;;;;;;;;;;9.50;99.90;;;;;;5112281;28;19935;-65
2023/01/05 04:24:09;;;;;;;;;;;9.70;99.90;;;;;;5113283;28;20378;-67
2023/01/05 04:26:36;;;;;;;;;;;9.90;99.90;;;;;;5113067;28;19920;-65
2023/01/05 04:29:02;;;;;;;;;;;9.80;99.90;;;;;;5112696;28;19923;-66
2023/01/05 04:31:28;;;;;;;;;;;9.70;99.90;;;;;;5112916;28;19920;-65
2023/01/05 04:33:53;;;;;;;;;;;9.50;99.90;;;;;;5113177;28;20359;-66
2023/01/05 04:36:19;;;;;;;;;;;9.90;99.90;;;;;;5112055;28;19926;-65
2023/01/05 04:38:45;;;;;;;;;;;9.80;99.90;;;;;;5113094;28;19923;-64
2023/01/05 04:41:10;;;;;;;;;;;9.90;99.90;;;;;;5113036;28;19929;-65
2023/01/05 04:43:36;;;;;;;;;;;10.10;99.90;;;;;;5112997;28;19923;-65
2023/01/05 04:46:02;;;;;;;;;;;10.00;99.90;;;;;;5112722;28;19931;-69
2023/01/05 04:48:27;;;;;;;;;;;9.90;99.90;;;;;;5112952;28;19967;-66
2023/01/05 04:50:53;;;;;;;;;;;10.10;99.90;;;;;;5112852;28;20367;-65
2023/01/05 04:53:19;;;;;;;;;;;9.70;99.90;;;;;;5111657;28;20336;-66
2023/01/05 04:55:44;;;;;;;;;;;9.60;99.90;;;;;;5112905;28;19995;-65
2023/01/05 04:58:10;;;;;;;;;;;9.80;99.90;;;;;;5112832;28;20352;-66
2023/01/05 05:00:36;;;;;;;;;;;9.90;99.90;;;;;;5112568;28;19930;-65
2023/01/05 05:03:01;;;;;;;;;;;10.00;99.90;;;;;;5112792;28;19963;-67
2023/01/05 05:05:27;;;;;;;;;;;9.90;99.90;;;;;;5112778;28;19924;-68
2023/01/05 05:07:53;;;;;;;;;;;9.90;99.90;;;;;;5112487;28;19985;-65
2023/01/05 05:10:18;;;;;;;;;;;9.70;99.90;;;;;;5112649;28;19920;-64
2023/01/05 05:12:44;;;;;;;;;;;9.50;99.90;;;;;;5112679;28;19954;-64
2023/01/05 05:15:10;;;;;;;;;;;9.50;99.90;;;;;;5112439;28;19927;-67
2023/01/05 05:17:35;;;;;;;;;;;9.90;99.90;;;;;;5113158;28;20039;-65
2023/01/05 05:20:01;;;;;;;;;;;9.40;99.90;;;;;;5116753;28;20436;-66
2023/01/05 05:22:27;;;;;;;;;;;9.50;99.90;;;;;;5116658;28;19923;-68
2023/01/05 05:24:52;;;;;;;;;;;9.70;99.90;;;;;;5116679;28;19942;-66
2023/01/05 05:27:18;;;;;;;;;;;9.70;99.90;;;;;;5116617;28;19963;-64
2023/01/05 05:29:43;;;;;;;;;;;9.80;99.90;;;;;;5116224;28;19920;-64
2023/01/05 05:32:09;;;;;;;;;;;9.70;99.90;;;;;;5116566;28;19920;-65
2023/01/05 05:34:35;;;;;;;;;;;9.80;99.90;;;;;;5116548;28;19924;-65
2023/01/05 05:37:00;;;;;;;;;;;9.80;99.90;;;;;;5116279;28;19920;-65
2023/01/05 05:39:26;;;;;;;;;;;9.40;99.90;;;;;;5116646;27;19939;-65
2023/01/05 05:41:52;;;;;;;;;;;9.70;99.90;;;;;;5116399;28;19968;-65
2023/01/05 05:44:17;;;;;;;;;;;9.80;99.90;;;;;;5115994;28;19946;-68
2023/01/05 05:46:43;;;;;;;;;;;9.40;99.90;;;;;;5116214;28;19920;-64
2023/01/05 05:49:08;;;;;;;;;;;9.70;99.90;;;;;;5116084;28;19920;-65
2023/01/05 05:51:34;;;;;;;;;;;9.70;99.90;;;;;;5116097;28;19926;-65
2023/01/05 05:54:00;;;;;;;;;;;9.90;99.90;;;;;;5116092;28;19928;-65
2023/01/05 05:56:25;;;;;;;;;;;9.50;99.90;;;;;;5116069;28;20023;-65
2023/01/05 05:58:51;;;;;;;;;;;9.70;99.90;;;;;;5115666;28;20352;-64
2023/01/05 06:01:16;;;;;;;;;;;9.30;99.90;;;;;;5115619;28;19923;-66
2023/01/05 06:03:42;;;;;;;;;;;9.30;99.90;;;;;;5114871;28;19933;-67
2023/01/05 06:06:08;;;;;;;;;;;9.30;99.90;;;;;;5115819;28;19920;-66
2023/01/05 06:08:33;;;;;;;;;;;9.50;99.90;;;;;;5115483;28;20460;-67
2023/01/05 06:10:59;;;;;;;;;;;9.60;99.90;;;;;;5115706;27;19924;-66
2023/01/05 06:13:25;;;;;;;;;;;9.00;99.90;;;;;;5115449;28;20156;-65
2023/01/05 06:15:50;;;;;;;;;;;9.40;99.90;;;;;;5115638;28;19985;-64
2023/01/05 06:18:16;;;;;;;;;;;9.10;99.90;;;;;;5115657;28;19919;-65
2023/01/05 06:20:42;;;;;;;;;;;9.20;99.90;;;;;;5115592;28;19920;-65
2023/01/05 06:23:08;;;;;;;;;;;9.40;99.90;;;;;;5115542;28;19927;-65
2023/01/05 06:25:34;;;;;;;;;;;9.60;99.90;;;;;;5115479;28;20030;-66
2023/01/05 06:27:59;;;;;;;;;;;9.30;99.90;;;;;;5096743;28;20393;-65
2023/01/05 06:30:25;;;;;;;;;;;9.20;99.90;;;;;;5112816;28;19978;-68
2023/01/05 06:32:51;;;;;;;;;;;9.50;99.90;;;;;;5115287;28;20018;-65
2023/01/05 06:35:17;;;;;;;;;;;9.20;99.90;;;;;;5115286;28;19926;-66
2023/01/05 06:37:42;;;;;;;;;;;9.60;99.90;;;;;;5115193;28;19923;-66
2023/01/05 06:40:10;;;;;;;;;;;9.40;99.90;;;;;;5115448;28;19924;-67
2023/01/05 06:42:36;;;;;;;;;;;9.20;99.90;;;;;;5114870;28;20072;-68
2023/01/05 06:45:02;;;;;;;;;;;9.40;99.90;;;;;;5115059;28;19920;-66
2023/01/05 06:47:28;;;;;;;;;;;9.30;99.90;;;;;;5108601;28;20067;-69
2023/01/05 06:49:53;;;;;;;;;;;9.50;99.90;;;;;;5108726;28;20007;-66
2023/01/05 06:52:19;;;;;;;;;;;9.60;99.90;;;;;;5093882;28;19920;-65
2023/01/05 06:54:44;;;;;;;;;;;9.50;99.90;;;;;;5092951;28;19969;-66
2023/01/05 06:57:10;;;;;;;;;;;9.40;99.90;;;;;;5092197;28;20429;-66
2023/01/05 06:59:36;;;;;;;;;;;9.60;99.90;;;;;;5093723;28;19930;-67
2023/01/05 07:02:01;;;;;;;;;;;9.40;99.90;;;;;;5091716;28;19923;-66
2023/01/05 07:04:27;;;;;;;;;;;9.50;99.90;;;;;;5075712;28;19924;-68
2023/01/05 07:06:52;;;;;;;;;;;9.50;99.90;;;;;;5093657;28;19923;-66
2023/01/05 07:09:18;;;;;;;;;;;9.40;99.90;;;;;;5093288;28;19924;-69
2023/01/05 07:11:43;;;;;;;;;;;9.50;99.90;;;;;;5092336;28;20443;-65
2023/01/05 07:14:09;;;;;;;;;;;9.30;99.90;;;;;;5093780;28;19942;-66
2023/01/05 07:16:35;;;;;;;;;;;9.50;99.90;;;;;;5092979;28;19967;-65
2023/01/05 07:19:00;;;;;;;;;;;9.20;99.90;;;;;;5093245;28;19920;-65
2023/01/05 07:21:26;;;;;;;;;;;9.20;99.90;;;;;;5092386;28;19920;-67
2023/01/05 07:23:51;;;;;;;;;;;9.40;99.90;;;;;;5093699;28;19980;-67
2023/01/05 07:26:17;;;;;;;;;;;9.20;99.90;;;;;;5091715;28;19960;-66
2023/01/05 07:28:42;;;;;;;;;;;9.40;99.90;;;;;;5091360;28;20574;-67
2023/01/05 07:31:08;;;;;;;;;;;9.30;99.90;;;;;;5090898;28;19946;-67
2023/01/05 07:33:34;;;;;;;;;;;9.30;99.90;;;;;;5091381;28;19924;-68
2023/01/05 07:36:01;;;;;;;;;;;9.30;99.90;;;;;;5089913;28;19920;-67
2023/01/05 07:38:26;;;;;;;;;;;9.10;99.90;;;;;;5089385;28;19968;-69
2023/01/05 07:40:52;;;;;;;;;;;9.50;99.90;;;;;;5088156;28;20361;-68
2023/01/05 07:43:17;;;;;;;;;;;9.30;99.90;;;;;;5089847;28;19927;-68
2023/01/05 07:45:43;;;;;;;;;;;9.20;99.90;;;;;;5089911;28;19969;-67
2023/01/05 07:48:08;;;;;;;;;;;9.10;99.90;;;;;;5091034;28;20578;-69
2023/01/05 07:50:34;;;;;;;;;;;9.40;99.90;;;;;;5090888;28;19923;-66
2023/01/05 07:53:00;;;;;;;;;;;9.30;99.90;;;;;;5092246;28;19923;-67
2023/01/05 07:55:25;;;;;;;;;;;9.50;99.90;;;;;;5093079;28;19931;-65
2023/01/05 07:57:51;;;;;;;;;;;9.30;99.90;;;;;;5093328;28;19927;-66
2023/01/05 08:00:17;;;;;;;;;;;9.50;99.90;;;;;;5093279;28;19959;-66
2023/01/05 08:02:43;;;;;;;;;;;9.50;99.90;;;;;;5092260;28;19924;-67
2023/01/05 08:05:09;;;;;;;;;;;9.50;99.90;;;;;;5093206;28;19971;-64
2023/01/05 08:07:35;;;;;;;;;;;9.30;99.90;;;;;;5093256;28;19930;-66
2023/01/05 08:15:28;;;;;;;;;;;9.20;99.90;;;;;;5093122;28;19989;-68
2023/01/05 08:17:54;;;;;;;;;;;9.30;99.90;;;;;;5092016;28;20355;-69
2023/01/05 08:20:19;;;;;;;;;;;9.20;99.90;;;;;;5092929;28;19920;-68
2023/01/05 08:22:49;;;;;;;;;;;9.10;99.90;;;;;;5091240;28;19939;-67
2023/01/05 08:25:14;;;;;;;;;;;8.90;99.90;;;;;;5092847;28;19977;-67
2023/01/05 08:27:40;;;;;;;;;;;9.20;99.90;;;;;;5092879;28;19920;-66
2023/01/05 08:30:06;;;;;;;;;;;9.00;99.90;;;;;;5092675;28;19967;-67
2023/01/05 08:32:31;;;;;;;;;;;8.90;99.90;;;;;;5092782;28;19924;-66
2023/01/05 08:34:57;;;;;;;;;;;8.90;99.90;;;;;;5092730;28;19920;-67
2023/01/05 08:37:22;;;;;;;;;;;9.00;99.90;;;;;;5092669;28;19974;-67
2023/01/05 08:39:48;;;;;;;;;;;9.00;99.90;;;;;;5092882;28;20446;-67
2023/01/05 08:42:14;;;;;;;;;;;8.60;99.90;;;;;;5092670;28;19927;-67
2023/01/05 08:44:39;;;;;;;;;;;8.90;99.90;;;;;;5092358;28;19927;-69
2023/01/05 08:47:05;;;;;;;;;;;9.00;99.90;;;;;;5091275;28;19962;-67
2023/01/05 08:49:30;;;;;;;;;;;8.90;99.90;;;;;;5092522;28;20318;-67
2023/01/05 08:51:56;;;;;;;;;;;8.70;99.90;;;;;;5090810;28;19920;-66
2023/01/05 08:54:21;;;;;;;;;;;8.90;99.90;;;;;;5091076;28;19927;-65
2023/01/05 08:56:49;;;;;;;;;;;8.90;99.90;;;;;;5091161;28;20288;-68
2023/01/05 08:59:15;;;;;;;;;;;8.70;99.90;;;;;;5091385;28;20023;-68
2023/01/05 09:01:40;;;;;;;;;;;8.60;99.90;;;;;;5091467;28;20034;-67
2023/01/05 09:04:07;;;;;;;;;;;9.00;99.90;;;;;;5092442;28;20275;-68
2023/01/05 09:06:32;;;;;;;;;;;8.90;99.90;;;;;;5092195;28;19975;-67
2023/01/05 09:08:58;;;;;;;;;;;8.80;99.90;;;;;;5092310;28;20024;-68
2023/01/05 09:11:24;;;;;;;;;;;8.60;99.90;;;;;;5091105;28;19924;-68
2023/01/05 09:13:55;;;;;;;;;;;8.80;99.90;;;;;;5092408;28;19975;-68
2023/01/05 09:16:22;;;;;;;;;;;9.30;99.90;;;;;;5092355;28;20395;-67
2023/01/05 09:18:48;;;;;;;;;;;8.80;99.90;;;;;;5092256;28;19975;-68
2023/01/05 09:21:13;;;;;;;;;;;9.10;99.90;;;;;;5090910;28;19963;-67
2023/01/05 09:23:39;;;;;;;;;;;8.80;99.90;;;;;;5091269;28;19924;-68
2023/01/05 09:26:14;;;;;;;;;;;8.90;99.90;;;;;;5092335;28;20142;-67
2023/01/05 09:28:41;;;;;;;;;;;9.10;99.90;;;;;;5092418;28;19931;-68
2023/01/05 09:31:13;;;;;;;;;;;9.00;99.90;;;;;;5092178;28;19927;-68
2023/01/05 09:33:39;;;;;;;;;;;8.80;99.90;;;;;;5092120;28;19924;-66
2023/01/05 09:36:06;;;;;;;;;;;8.90;99.90;;;;;;5091794;28;19931;-68
2023/01/05 09:38:31;;;;;;;;;;;9.00;99.90;;;;;;5092027;28;19924;-66
2023/01/05 09:41:00;;;;;;;;;;;9.30;99.90;;;;;;5092072;28;19927;-66
2023/01/05 09:43:28;;;;;;;;;;;9.10;99.90;;;;;;5092028;28;19997;-67
2023/01/05 09:45:53;;;;;;;;;;;9.20;99.90;;;;;;5091990;28;19973;-67
2023/01/05 09:48:20;;;;;;;;;;;8.90;99.90;;;;;;5090971;28;19920;-68
2023/01/05 09:50:47;;;;;;;;;;;9.00;99.90;;;;;;5091704;28;19935;-68
2023/01/05 09:53:13;;;;;;;;;;;9.20;99.90;;;;;;5090910;28;19920;-67
2023/01/05 09:55:40;;;;;;;;;;;8.90;99.90;;;;;;5091893;28;20294;-67
2023/01/05 09:58:13;;;;;;;;;;;9.10;99.90;;;;;;5090599;28;19982;-66
2023/01/05 10:00:40;;;;;;;;;;;9.00;99.90;;;;;;5090944;28;19935;-66
2023/01/05 10:03:13;;;;;;;;;;;8.90;99.90;;;;;;5090819;28;20276;-66
2023/01/05 10:05:41;;;;;;;;;;;9.20;99.90;;;;;;5093591;28;20379;-66
2023/01/05 10:08:09;;;;;;;;;;;8.90;99.90;;;;;;5095356;28;19920;-68
2023/01/05 10:10:42;;;;;;;;;;;9.20;99.90;;;;;;5094070;28;19928;-68
2023/01/05 10:13:14;;;;;;;;;;;9.50;99.90;;;;;;5094033;28;19927;-68
2023/01/05 10:15:41;;;;;;;;;;;9.40;99.90;;;;;;5095317;28;19927;-66
2023/01/05 10:18:08;;;;;;;;;;;9.20;99.90;;;;;;5095165;28;19920;-68
2023/01/05 10:20:46;;;;;;;;;;;9.00;99.90;;;;;;5094647;28;20361;-68
2023/01/05 10:23:18;;;;;;;;;;;8.90;99.90;;;;;;5095083;28;19965;-67
2023/01/05 10:25:50;;;;;;;;;;;9.30;99.90;;;;;;5094188;28;20458;-68
2023/01/05 10:28:34;;;;;;;;;;;9.10;99.90;;;;;;5095093;28;19924;-67
2023/01/05 10:31:00;;;;;;;;;;;9.40;99.90;;;;;;5094971;28;19920;-67
2023/01/05 10:33:48;;;;;;;;;;;9.10;99.90;;;;;;5094687;28;19927;-68
2023/01/05 10:36:16;;;;;;;;;;;9.10;99.90;;;;;;5094913;28;20560;-68
2023/01/05 10:39:04;;;;;;;;;;;9.10;99.90;;;;;;5094549;28;20380;-68
2023/01/05 10:41:49;;;;;;;;;;;9.50;99.90;;;;;;5094751;28;19920;-68
2023/01/05 10:44:30;;;;;;;;;;;9.30;99.90;;;;;;5094762;28;19978;-68
2023/01/05 10:46:55;;;;;;;;;;;9.50;99.90;;;;;;5093644;28;20335;-68
2023/01/05 10:49:28;;;;;;;;;;;9.50;99.90;;;;;;5094273;28;20012;-68
2023/01/05 10:51:58;;;;;;;;;;;9.50;99.90;;;;;;5094859;28;19920;-67
2023/01/05 10:54:38;;;;;;;;;;;9.30;99.90;;;;;;5093207;28;19920;-67
2023/01/05 10:57:22;;;;;;;;;;;9.50;99.90;;;;;;5094419;28;19926;-67
2023/01/05 10:59:55;;;;;;;;;;;9.30;99.90;;;;;;5094412;28;19920;-68
2023/01/05 11:02:22;;;;;;;;;;;9.70;99.90;;;;;;5094116;28;19928;-69
2023/01/05 11:04:49;;;;;;;;;;;9.30;99.90;;;;;;5094408;28;20276;-67
2023/01/05 11:07:14;;;;;;;;;;;9.40;99.90;;;;;;5094189;28;19920;-67
2023/01/05 11:09:42;;;;;;;;;;;9.30;99.90;;;;;;5094168;28;20493;-68
2023/01/05 11:12:14;;;;;;;;;;;9.70;99.90;;;;;;5092875;28;19919;-68
2023/01/05 11:14:42;;;;;;;;;;;9.60;99.90;;;;;;5094188;28;19982;-69
2023/01/05 11:17:12;;;;;;;;;;;9.60;99.90;;;;;;5093422;28;19920;-68
2023/01/05 11:19:44;;;;;;;;;;;9.30;99.90;;;;;;5093110;28;19943;-67
2023/01/05 11:22:28;;;;;;;;;;;9.90;99.90;;;;;;5094030;28;19927;-67
2023/01/05 11:24:53;;;;;;;;;;;9.70;99.90;;;;;;5094267;28;19920;-67
2023/01/05 11:27:19;;;;;;;;;;;9.40;99.90;;;;;;5092930;28;20006;-66
2023/01/05 11:29:44;;;;;;;;;;;9.50;99.90;;;;;;5093681;28;19920;-67
2023/01/05 11:32:11;;;;;;;;;;;9.60;99.90;;;;;;5093533;28;19966;-67
2023/01/05 11:34:40;;;;;;;;;;;9.60;99.90;;;;;;5092787;28;19924;-67
2023/01/05 11:37:11;;;;;;;;;;;9.70;99.90;;;;;;5093943;28;20078;-68
2023/01/05 11:39:46;;;;;;;;;;;9.90;99.90;;;;;;5093596;28;19924;-68
2023/01/05 11:42:13;;;;;;;;;;;9.70;99.90;;;;;;5092445;28;19924;-70
2023/01/05 11:44:41;;;;;;;;;;;9.80;99.90;;;;;;5093323;28;19920;-68
2023/01/05 11:47:07;;;;;;;;;;;9.70;99.90;;;;;;5092933;28;20018;-70
2023/01/05 11:49:33;;;;;;;;;;;9.80;99.90;;;;;;5093164;28;19923;-69
2023/01/05 11:51:59;;;;;;;;;;;9.50;99.90;;;;;;5093291;28;19920;-67
2023/01/05 11:54:30;;;;;;;;;;;9.70;99.90;;;;;;5093256;28;19920;-68
2023/01/05 11:57:05;;;;;;;;;;;9.60;99.90;;;;;;5093352;28;19973;-67
2023/01/05 11:59:31;;;;;;;;;;;9.50;99.90;;;;;;5092289;28;19924;-67
2023/01/05 12:01:59;;;;;;;;;;;9.80;99.90;;;;;;5092966;28;20367;-67
2023/01/05 12:04:47;;;;;;;;;;;9.70;99.90;;;;;;5093076;28;20011;-68
2023/01/05 12:07:31;;;;;;;;;;;9.90;99.90;;;;;;5093167;28;20322;-68
2023/01/05 12:10:03;;;;;;;;;;;10.00;99.90;;;;;;5093088;28;19986;-67
2023/01/05 12:12:37;;;;;;;;;;;10.20;99.90;;;;;;5092092;28;20279;-68
2023/01/05 12:15:22;;;;;;;;;;;10.30;99.90;;;;;;5092795;28;19946;-68
2023/01/05 12:18:06;;;;;;;;;;;10.10;99.90;;;;;;5091376;28;20509;-69
2023/01/05 12:20:47;;;;;;;;;;;10.00;99.90;;;;;;5092874;28;19920;-67
2023/01/05 12:23:23;;;;;;;;;;;10.30;99.90;;;;;;5092856;28;20366;-67
2023/01/05 12:25:51;;;;;;;;;;;10.20;99.90;;;;;;5092868;28;19989;-67
2023/01/05 12:28:30;;;;;;;;;;;10.00;99.90;;;;;;5091067;28;19924;-67
2023/01/05 12:30:55;;;;;;;;;;;10.30;99.90;;;;;;5090771;28;19928;-67
2023/01/05 12:33:46;;;;;;;;;;;9.80;99.90;;;;;;5091649;28;20462;-68
2023/01/05 12:36:26;;;;;;;;;;;9.90;99.90;;;;;;5092784;28;19927;-68
2023/01/05 12:38:58;;;;;;;;;;;10.10;99.90;;;;;;5092771;28;19920;-68
2023/01/05 12:41:35;;;;;;;;;;;10.20;99.90;;;;;;5092595;28;20321;-67
2023/01/05 12:44:19;;;;;;;;;;;9.90;99.90;;;;;;5092360;28;19946;-68
2023/01/05 12:46:44;;;;;;;;;;;10.00;99.90;;;;;;5092574;28;19924;-66
2023/01/05 12:49:14;;;;;;;;;;;10.20;99.90;;;;;;5091365;28;19926;-67
2023/01/05 12:51:56;;;;;;;;;;;10.30;99.90;;;;;;5092557;28;19920;-68
2023/01/05 12:54:28;;;;;;;;;;;10.40;99.90;;;;;;5092494;28;19924;-67
2023/01/05 12:57:00;;;;;;;;;;;10.30;99.90;;;;;;5092611;28;19920;-68
2023/01/05 12:59:36;;;;;;;;;;;10.50;99.90;;;;;;5092405;28;20018;-67
2023/01/05 13:02:08;;;;;;;;;;;10.40;99.90;;;;;;5092382;28;19931;-69
2023/01/05 13:04:37;;;;;;;;;;;10.30;99.90;;;;;;5091334;28;19939;-67
2023/01/05 13:07:05;;;;;;;;;;;10.20;99.90;;;;;;5092350;28;19986;-67
2023/01/05 13:09:31;;;;;;;;;;;10.20;99.90;;;;;;5092282;28;19920;-66
2023/01/05 13:12:00;;;;;;;;;;;10.30;99.90;;;;;;5092350;28;20534;-67
2023/01/05 13:14:27;;;;;;;;;;;10.40;99.90;;;;;;5092074;28;19930;-68
2023/01/05 13:17:13;;;;;;;;;;;10.10;99.90;;;;;;5092491;28;19927;-73
2023/01/05 13:19:47;;;;;;;;;;;10.50;99.90;;;;;;5092559;28;20007;-66
2023/01/05 13:22:23;;;;;;;;;;;10.00;99.90;;;;;;5092387;28;19962;-70
2023/01/05 13:24:56;;;;;;;;;;;10.10;99.90;;;;;;5092230;28;20041;-67
2023/01/05 13:27:21;;;;;;;;;;;10.00;99.90;;;;;;5090731;28;19920;-65
2023/01/05 13:29:49;;;;;;;;;;;10.00;99.90;;;;;;5090891;28;19927;-67
2023/01/05 13:32:14;;;;;;;;;;;10.00;99.90;;;;;;5090763;28;19920;-67
2023/01/05 13:34:46;;;;;;;;;;;10.00;99.90;;;;;;5092093;28;19927;-67
2023/01/05 13:37:24;;;;;;;;;;;10.20;99.90;;;;;;5092062;28;19920;-67
2023/01/05 13:39:55;;;;;;;;;;;10.10;99.90;;;;;;5094475;28;20395;-66
2023/01/05 13:42:36;;;;;;;;;;;9.90;99.90;;;;;;5095527;28;20424;-65
2023/01/05 13:45:05;;;;;;;;;;;9.70;99.90;;;;;;5095845;28;19989;-67
2023/01/05 13:47:36;;;;;;;;;;;9.80;99.90;;;;;;5095767;28;20077;-68
2023/01/05 13:50:21;;;;;;;;;;;9.90;99.90;;;;;;5095398;28;20019;-66
2023/01/05 13:53:05;;;;;;;;;;;9.90;99.90;;;;;;5095698;28;19924;-68
2023/01/05 13:55:32;;;;;;;;;;;9.90;99.90;;;;;;5095657;28;19977;-69
2023/01/05 13:57:57;;;;;;;;;;;10.20;99.90;;;;;;5094129;28;19955;-68
2023/01/05 14:00:26;;;;;;;;;;;9.90;99.90;;;;;;5095330;28;20383;-69
2023/01/05 14:03:08;;;;;;;;;;;10.00;99.90;;;;;;5095691;28;19927;-67
2023/01/05 14:05:47;;;;;;;;;;;9.60;99.90;;;;;;5094168;28;19930;-68
2023/01/05 14:08:25;;;;;;;;;;;9.90;99.90;;;;;;5095554;28;20419;-68
2023/01/05 14:11:09;;;;;;;;;;;9.50;99.90;;;;;;5095204;28;19927;-68
2023/01/05 14:13:57;;;;;;;;;;;10.10;99.90;;;;;;5077416;28;19927;-68
2023/01/05 14:16:35;;;;;;;;;;;9.70;99.90;;;;;;5073891;28;19927;-68
2023/01/05 14:19:20;;;;;;;;;;;9.80;99.90;;;;;;5094219;28;19939;-70
2023/01/05 14:21:48;;;;;;;;;;;9.80;99.90;;;;;;5095110;28;19968;-68
2023/01/05 14:24:33;;;;;;;;;;;10.00;99.90;;;;;;5095080;28;19924;-68
2023/01/05 14:26:59;;;;;;;;;;;9.80;99.90;;;;;;5094805;28;19924;-68
2023/01/05 14:29:46;;;;;;;;;;;9.80;99.90;;;;;;5094660;28;19969;-69
2023/01/05 14:32:18;;;;;;;;;;;9.80;99.90;;;;;;5087034;28;20307;-71
2023/01/05 14:34:48;;;;;;;;;;;9.70;99.90;;;;;;5093579;28;19935;-70
2023/01/05 14:37:21;;;;;;;;;;;9.70;99.90;;;;;;5093852;28;19941;-69
2023/01/05 14:39:47;;;;;;;;;;;10.50;99.90;;;;;;5094606;28;19920;-69
2023/01/05 14:42:13;;;;;;;;;;;9.60;99.90;;;;;;5093625;28;19928;-69
2023/01/05 14:44:44;;;;;;;;;;;10.00;99.90;;;;;;5094863;28;20081;-70
2023/01/05 14:47:10;;;;;;;;;;;9.80;99.90;;;;;;5076795;28;19920;-69
2023/01/05 14:49:50;;;;;;;;;;;9.70;99.90;;;;;;5094714;28;19931;-69
2023/01/05 14:52:17;;;;;;;;;;;9.40;99.90;;;;;;5094238;28;19924;-69
2023/01/05 14:54:43;;;;;;;;;;;9.70;99.90;;;;;;5094506;28;19920;-69
2023/01/05 14:57:21;;;;;;;;;;;9.60;99.90;;;;;;5076685;28;20287;-69
2023/01/05 14:59:47;;;;;;;;;;;9.60;99.90;;;;;;5093482;28;19924;-69
2023/01/05 15:02:21;;;;;;;;;;;9.60;99.90;;;;;;5094454;28;19920;-69
2023/01/05 15:04:48;;;;;;;;;;;9.60;99.90;;;;;;5076608;28;19931;-69
2023/01/05 15:07:13;;;;;;;;;;;9.60;99.90;;;;;;5093380;28;19920;-69
2023/01/05 15:10:03;;;;;;;;;;;9.80;99.90;;;;;;5093001;28;20023;-74
2023/01/05 15:12:42;;;;;;;;;;;9.60;99.90;;;;;;5094650;28;19926;-70
2023/01/05 15:15:17;;;;;;;;;;;9.50;99.90;;;;;;5094284;28;20295;-69